DLH499 MMMX-EDDF
Flight info
| Callsign | DLH499 |
|---|---|
| Flight time | N/A |
| Altitude | 37000 |
| Route | IKLAN3B IKLAN UT140 TAM J177 PSX DCT KH87E DCT KF21G DCT KM36I DCT KK48K DCT CRL DCT YXU DCT SSENA Q951 TALNO Q929 EPTUL Q951 ANTOV DCT HULTN N365B JOOPY/M081F370 DCT 49N050W 50N040W 52N030W 54N020W DCT DOGAL DCT BEXET/N0460F370 DCT ERABI DCT ENJEX DCT ADHAV DCT AGCAT DCT AXNEF DCT ZIPWE DCT OZZIL DCT SAWPE Q63 CPT UL9 BIG L607 KONAN DCT KOK UL607 SPI T180 NIVNU T847 IMCOM IMCOM1D |
| Aircraft | B748/H-SADE2E3GHIJ3J4J5M1P2RWXYZ/LB1D1 |
Departure
| Time | N/A |
|---|---|
| Airport | Mexico City Benito Juárez International Airport (MMMX) |
Arrival
| Time | 2026-04-16 21:50 |
|---|---|
| Airport | Frankfurt Main Airport (EDDF) |
| Time | Latitude | Longitude | Altitude | Speed | Heading |
|---|---|---|---|---|---|
| 2026-04-16 21:16 | 50.54027 | 5.54851 | 37008 ft | 490 kts | 104° |
| 2026-04-16 21:17 | 50.51929 | 5.65040 | 37008 ft | 491 kts | 107° |
| 2026-04-16 21:17 | 50.50042 | 5.75269 | 36936 ft | 490 kts | 107° |
| 2026-04-16 21:17 | 50.48977 | 5.80354 | 36610 ft | 489 kts | 109° |
| 2026-04-16 21:18 | 50.47887 | 5.85416 | 36076 ft | 490 kts | 108° |
| 2026-04-16 21:18 | 50.46857 | 5.90515 | 35401 ft | 491 kts | 107° |
| 2026-04-16 21:18 | 50.45849 | 5.95650 | 34680 ft | 494 kts | 107° |
| 2026-04-16 21:18 | 50.44799 | 6.00803 | 33982 ft | 496 kts | 108° |
| 2026-04-16 21:19 | 50.43724 | 6.05930 | 33685 ft | 488 kts | 108° |
| 2026-04-16 21:19 | 50.42678 | 6.10976 | 33220 ft | 486 kts | 108° |
| 2026-04-16 21:19 | 50.41652 | 6.16021 | 32540 ft | 488 kts | 108° |
| 2026-04-16 21:19 | 50.40611 | 6.21095 | 31821 ft | 490 kts | 108° |
| 2026-04-16 21:20 | 50.39552 | 6.26174 | 31097 ft | 491 kts | 108° |
| 2026-04-16 21:20 | 50.38491 | 6.31252 | 30506 ft | 490 kts | 108° |
| 2026-04-16 21:20 | 50.37465 | 6.36330 | 30003 ft | 486 kts | 106° |
| 2026-04-16 21:20 | 50.36560 | 6.41406 | 29498 ft | 482 kts | 102° |
| 2026-04-16 21:21 | 50.36086 | 6.46568 | 29009 ft | 477 kts | 96° |
| 2026-04-16 21:21 | 50.35771 | 6.51727 | 28492 ft | 474 kts | 95° |
| 2026-04-16 21:21 | 50.35485 | 6.56844 | 27993 ft | 470 kts | 95° |
| 2026-04-16 21:21 | 50.35165 | 6.61921 | 27492 ft | 467 kts | 96° |
| 2026-04-16 21:22 | 50.34823 | 6.66951 | 26989 ft | 463 kts | 96° |
| 2026-04-16 21:22 | 50.34496 | 6.71956 | 26491 ft | 460 kts | 96° |
| 2026-04-16 21:22 | 50.34186 | 6.76924 | 25999 ft | 456 kts | 95° |
| 2026-04-16 21:22 | 50.33884 | 6.81843 | 25512 ft | 453 kts | 96° |
| 2026-04-16 21:23 | 50.33332 | 6.86663 | 25023 ft | 449 kts | 107° |
| 2026-04-16 21:23 | 50.32180 | 6.91175 | 24531 ft | 445 kts | 115° |
| 2026-04-16 21:23 | 50.30867 | 6.95478 | 24028 ft | 442 kts | 116° |
| 2026-04-16 21:23 | 50.29539 | 6.99791 | 23528 ft | 439 kts | 115° |
| 2026-04-16 21:24 | 50.28257 | 7.04119 | 23057 ft | 436 kts | 115° |
| 2026-04-16 21:24 | 50.27000 | 7.08414 | 22577 ft | 433 kts | 115° |
| 2026-04-16 21:24 | 50.25730 | 7.12664 | 22092 ft | 430 kts | 115° |
| 2026-04-16 21:24 | 50.24456 | 7.16870 | 21630 ft | 427 kts | 115° |
| 2026-04-16 21:25 | 50.23198 | 7.21050 | 21139 ft | 424 kts | 115° |
| 2026-04-16 21:25 | 50.21955 | 7.25206 | 20685 ft | 421 kts | 115° |
| 2026-04-16 21:25 | 50.20717 | 7.29325 | 20227 ft | 417 kts | 115° |
| 2026-04-16 21:25 | 50.19508 | 7.33426 | 19755 ft | 414 kts | 111° |
| 2026-04-16 21:26 | 50.18509 | 7.37624 | 19301 ft | 411 kts | 110° |
| 2026-04-16 21:26 | 50.17523 | 7.41797 | 18843 ft | 409 kts | 110° |
| 2026-04-16 21:26 | 50.16533 | 7.45940 | 18388 ft | 406 kts | 110° |
| 2026-04-16 21:26 | 50.15546 | 7.50051 | 17936 ft | 404 kts | 110° |
| 2026-04-16 21:27 | 50.14566 | 7.54138 | 17479 ft | 401 kts | 110° |
| 2026-04-16 21:27 | 50.13606 | 7.58146 | 17040 ft | 399 kts | 110° |
| 2026-04-16 21:27 | 50.12636 | 7.62181 | 16582 ft | 396 kts | 110° |
| 2026-04-16 21:27 | 50.11983 | 7.64889 | 16290 ft | 395 kts | 110° |
| 2026-04-16 21:28 | 50.10775 | 7.69237 | 15796 ft | 391 kts | 121° |
| 2026-04-16 21:28 | 50.09288 | 7.72769 | 15369 ft | 388 kts | 125° |
| 2026-04-16 21:28 | 50.07703 | 7.76157 | 14934 ft | 386 kts | 126° |
| 2026-04-16 21:28 | 50.06149 | 7.79538 | 14617 ft | 380 kts | 124° |
| 2026-04-16 21:29 | 50.05174 | 7.81765 | 14551 ft | 372 kts | 124° |
| 2026-04-16 21:29 | 50.03761 | 7.85019 | 14418 ft | 350 kts | 124° |
| 2026-04-16 21:29 | 50.02415 | 7.88041 | 14104 ft | 330 kts | 125° |
| 2026-04-16 21:29 | 50.01127 | 7.90896 | 13800 ft | 319 kts | 124° |
| 2026-04-16 21:30 | 50.00125 | 7.93919 | 13633 ft | 314 kts | 104° |
| 2026-04-16 21:30 | 49.99961 | 7.97248 | 13438 ft | 309 kts | 80° |
| 2026-04-16 21:30 | 50.00582 | 8.00411 | 13220 ft | 305 kts | 68° |
| 2026-04-16 21:30 | 50.01395 | 8.03454 | 12949 ft | 304 kts | 67° |
| 2026-04-16 21:31 | 50.02181 | 8.06503 | 12686 ft | 303 kts | 69° |
| 2026-04-16 21:31 | 50.02912 | 8.09566 | 12424 ft | 302 kts | 70° |
| 2026-04-16 21:31 | 50.03640 | 8.12629 | 12179 ft | 301 kts | 69° |
| 2026-04-16 21:31 | 50.04383 | 8.15668 | 11916 ft | 300 kts | 69° |
| 2026-04-16 21:32 | 50.04951 | 8.18735 | 11646 ft | 298 kts | 87° |
| 2026-04-16 21:32 | 50.04677 | 8.21883 | 11434 ft | 294 kts | 112° |
| 2026-04-16 21:32 | 50.03642 | 8.24602 | 11184 ft | 292 kts | 128° |
| 2026-04-16 21:32 | 50.02341 | 8.27026 | 10907 ft | 292 kts | 132° |
| 2026-04-16 21:33 | 50.00974 | 8.29363 | 10643 ft | 292 kts | 133° |
| 2026-04-16 21:33 | 49.99589 | 8.31676 | 10397 ft | 291 kts | 133° |
| 2026-04-16 21:33 | 49.98206 | 8.33972 | 10144 ft | 291 kts | 133° |
| 2026-04-16 21:33 | 49.96823 | 8.36262 | 9904 ft | 290 kts | 133° |
| 2026-04-16 21:34 | 49.95451 | 8.38532 | 9782 ft | 284 kts | 133° |
| 2026-04-16 21:34 | 49.94079 | 8.40801 | 9780 ft | 291 kts | 133° |
| 2026-04-16 21:34 | 49.92827 | 8.43232 | 9784 ft | 291 kts | 115° |
| 2026-04-16 21:34 | 49.92321 | 8.46248 | 9812 ft | 290 kts | 90° |
| 2026-04-16 21:35 | 49.92557 | 8.49362 | 9799 ft | 291 kts | 77° |
| 2026-04-16 21:35 | 49.93043 | 8.52409 | 9786 ft | 291 kts | 74° |
| 2026-04-16 21:35 | 49.93592 | 8.55430 | 9785 ft | 291 kts | 73° |
| 2026-04-16 21:35 | 49.94155 | 8.58433 | 9679 ft | 288 kts | 73° |
| 2026-04-16 21:36 | 49.94719 | 8.61419 | 9443 ft | 288 kts | 73° |
| 2026-04-16 21:36 | 49.95284 | 8.64403 | 9218 ft | 288 kts | 73° |
| 2026-04-16 21:36 | 49.95847 | 8.67380 | 9000 ft | 287 kts | 73° |
| 2026-04-16 21:36 | 49.96400 | 8.70308 | 8787 ft | 286 kts | 73° |
| 2026-04-16 21:37 | 49.96961 | 8.73279 | 8560 ft | 286 kts | 73° |
| 2026-04-16 21:37 | 49.97519 | 8.76234 | 8366 ft | 285 kts | 73° |
| 2026-04-16 21:37 | 49.98077 | 8.79189 | 8159 ft | 284 kts | 73° |
| 2026-04-16 21:37 | 49.98631 | 8.82125 | 7966 ft | 283 kts | 73° |
| 2026-04-16 21:38 | 49.99184 | 8.85061 | 7750 ft | 282 kts | 73° |
| 2026-04-16 21:38 | 49.99736 | 8.87988 | 7555 ft | 281 kts | 73° |
| 2026-04-16 21:38 | 50.00285 | 8.90901 | 7356 ft | 281 kts | 73° |
| 2026-04-16 21:38 | 50.00832 | 8.93809 | 7148 ft | 280 kts | 73° |
| 2026-04-16 21:39 | 50.01379 | 8.96712 | 6963 ft | 279 kts | 73° |
| 2026-04-16 21:39 | 50.01922 | 8.99604 | 6764 ft | 278 kts | 73° |
| 2026-04-16 21:39 | 50.02465 | 9.02491 | 6576 ft | 277 kts | 73° |
| 2026-04-16 21:39 | 50.02998 | 9.05331 | 6392 ft | 277 kts | 73° |
| 2026-04-16 21:40 | 50.03543 | 9.08234 | 6197 ft | 276 kts | 73° |
| 2026-04-16 21:40 | 50.04081 | 9.11098 | 6005 ft | 276 kts | 73° |
| 2026-04-16 21:40 | 50.04610 | 9.13922 | 5829 ft | 275 kts | 73° |
| 2026-04-16 21:40 | 50.05144 | 9.16771 | 5644 ft | 274 kts | 73° |
| 2026-04-16 21:41 | 50.05895 | 9.19475 | 5452 ft | 272 kts | 51° |
| 2026-04-16 21:41 | 50.07322 | 9.21325 | 5304 ft | 268 kts | 23° |
| 2026-04-16 21:41 | 50.09110 | 9.21890 | 5246 ft | 261 kts | 354° |
| 2026-04-16 21:41 | 50.10799 | 9.21058 | 5203 ft | 251 kts | 325° |
| 2026-04-16 21:42 | 50.11967 | 9.19146 | 4915 ft | 244 kts | 296° |
| 2026-04-16 21:42 | 50.12575 | 9.16692 | 4522 ft | 243 kts | 286° |
| 2026-04-16 21:42 | 50.13020 | 9.14163 | 4144 ft | 242 kts | 284° |
| 2026-04-16 21:42 | 50.13426 | 9.11661 | 3931 ft | 234 kts | 283° |
| 2026-04-16 21:43 | 50.13815 | 9.09221 | 3782 ft | 231 kts | 283° |
| 2026-04-16 21:43 | 50.14202 | 9.06783 | 3780 ft | 231 kts | 283° |
| 2026-04-16 21:43 | 50.14589 | 9.04344 | 3781 ft | 232 kts | 283° |
| 2026-04-16 21:43 | 50.14975 | 9.01906 | 3779 ft | 232 kts | 283° |
| 2026-04-16 21:44 | 50.15268 | 8.99442 | 3750 ft | 232 kts | 266° |
| 2026-04-16 21:44 | 50.14787 | 8.97074 | 3781 ft | 232 kts | 237° |
| 2026-04-16 21:44 | 50.13831 | 8.95074 | 3767 ft | 225 kts | 226° |
| 2026-04-16 21:44 | 50.12673 | 8.93433 | 3743 ft | 225 kts | 229° |
| 2026-04-16 21:45 | 50.11875 | 8.91416 | 3743 ft | 212 kts | 245° |
| 2026-04-16 21:45 | 50.11349 | 8.89373 | 3743 ft | 195 kts | 249° |
| 2026-04-16 21:45 | 50.10881 | 8.87433 | 3776 ft | 192 kts | 249° |
| 2026-04-16 21:45 | 50.10419 | 8.85504 | 3788 ft | 189 kts | 249° |
| 2026-04-16 21:46 | 50.09957 | 8.83583 | 3675 ft | 189 kts | 250° |
| 2026-04-16 21:46 | 50.09519 | 8.81755 | 3466 ft | 173 kts | 250° |
| 2026-04-16 21:46 | 50.09099 | 8.80006 | 3248 ft | 171 kts | 249° |
| 2026-04-16 21:46 | 50.08685 | 8.78273 | 3026 ft | 170 kts | 250° |
| 2026-04-16 21:47 | 50.08281 | 8.76545 | 2781 ft | 169 kts | 250° |
| 2026-04-16 21:47 | 50.07870 | 8.74831 | 2556 ft | 169 kts | 250° |
| 2026-04-16 21:47 | 50.07462 | 8.73124 | 2331 ft | 168 kts | 250° |
| 2026-04-16 21:47 | 50.07059 | 8.71444 | 2106 ft | 167 kts | 250° |
| 2026-04-16 21:48 | 50.06654 | 8.69750 | 1878 ft | 168 kts | 249° |
| 2026-04-16 21:48 | 50.06261 | 8.68113 | 1977 ft | 148 kts | 250° |
| 2026-04-16 21:48 | 50.05898 | 8.66624 | 1728 ft | 161 kts | 249° |
| 2026-04-16 21:48 | 50.05489 | 8.65069 | 1676 ft | 147 kts | 248° |
| 2026-04-16 21:49 | 50.05093 | 8.63572 | 1259 ft | 153 kts | 250° |
| 2026-04-16 21:49 | 50.04737 | 8.62007 | 966 ft | 151 kts | 253° |
| 2026-04-16 21:49 | 50.04406 | 8.60473 | 671 ft | 150 kts | 251° |
| 2026-04-16 21:49 | 50.04060 | 8.58944 | 387 ft | 148 kts | 252° |
| 2026-04-16 21:50 | 50.03733 | 8.57531 | 362 ft | 129 kts | 249° |
| 2026-04-16 21:50 | 50.03451 | 8.56365 | 358 ft | 97 kts | 249° |
| 2026-04-16 21:50 | 50.03278 | 8.55643 | 360 ft | 55 kts | 249° |
| 2026-04-16 21:50 | 50.03171 | 8.55168 | 360 ft | 36 kts | 256° |
| 2026-04-16 21:51 | 50.03179 | 8.54909 | 359 ft | 16 kts | 280° |
| 2026-04-16 21:51 | 50.03192 | 8.54770 | 356 ft | 11 kts | 278° |
| 2026-04-16 21:51 | 50.03206 | 8.54658 | 361 ft | 10 kts | 283° |
| 2026-04-16 21:51 | 50.03234 | 8.54562 | 362 ft | 10 kts | 306° |
| 2026-04-16 21:52 | 50.03294 | 8.54491 | 360 ft | 12 kts | 335° |
| 2026-04-16 21:52 | 50.03380 | 8.54435 | 358 ft | 15 kts | 338° |
| 2026-04-16 21:52 | 50.03483 | 8.54375 | 359 ft | 15 kts | 340° |
| 2026-04-16 21:52 | 50.03574 | 8.54323 | 360 ft | 8 kts | 340° |
| 2026-04-16 21:53 | 50.03586 | 8.54315 | 359 ft | 0 kts | 339° |
| 2026-04-16 21:54 | 50.03595 | 8.54311 | 356 ft | 3 kts | 341° |
| 2026-04-16 21:55 | 50.03623 | 8.54305 | 360 ft | 5 kts | 0° |
| 2026-04-16 21:55 | 50.03655 | 8.54324 | 359 ft | 6 kts | 34° |
| 2026-04-16 21:55 | 50.03676 | 8.54374 | 360 ft | 6 kts | 68° |
| 2026-04-16 21:55 | 50.03694 | 8.54452 | 360 ft | 9 kts | 72° |
| 2026-04-16 21:56 | 50.03720 | 8.54563 | 360 ft | 12 kts | 68° |
| 2026-04-16 21:56 | 50.03756 | 8.54703 | 360 ft | 15 kts | 68° |
| 2026-04-16 21:56 | 50.03795 | 8.54874 | 360 ft | 18 kts | 71° |
| 2026-04-16 21:56 | 50.03842 | 8.55069 | 359 ft | 20 kts | 69° |
| 2026-04-16 21:57 | 50.03888 | 8.55261 | 360 ft | 18 kts | 68° |
| 2026-04-16 21:57 | 50.03930 | 8.55440 | 358 ft | 17 kts | 69° |
| 2026-04-16 21:57 | 50.03974 | 8.55603 | 358 ft | 16 kts | 70° |
| 2026-04-16 21:57 | 50.04012 | 8.55769 | 360 ft | 17 kts | 69° |
| 2026-04-16 21:58 | 50.04051 | 8.55933 | 354 ft | 16 kts | 68° |
| 2026-04-16 21:58 | 50.04090 | 8.56072 | 362 ft | 9 kts | 50° |
| 2026-04-16 21:58 | 50.04124 | 8.56091 | 358 ft | 3 kts | 359° |
| 2026-04-16 21:58 | 50.04147 | 8.56079 | 362 ft | 5 kts | 339° |
| 2026-04-16 21:59 | 50.04188 | 8.56052 | 360 ft | 8 kts | 335° |
| 2026-04-16 21:59 | 50.04247 | 8.56002 | 357 ft | 11 kts | 328° |
| 2026-04-16 21:59 | 50.04323 | 8.55951 | 359 ft | 12 kts | 341° |
| 2026-04-16 21:59 | 50.04399 | 8.55920 | 361 ft | 11 kts | 349° |
| 2026-04-16 22:00 | 50.04470 | 8.55919 | 354 ft | 9 kts | 9° |
| 2026-04-16 22:00 | 50.04522 | 8.55956 | 358 ft | 7 kts | 37° |
| 2026-04-16 22:00 | 50.04553 | 8.56008 | 360 ft | 6 kts | 55° |
| 2026-04-16 22:00 | 50.04569 | 8.56059 | 359 ft | 5 kts | 64° |
| 2026-04-16 22:01 | 50.04584 | 8.56086 | 360 ft | 2 kts | 39° |
| 2026-04-16 22:01 | 50.04599 | 8.56094 | 358 ft | 2 kts | 12° |
| 2026-04-16 22:01 | 50.04614 | 8.56088 | 358 ft | 2 kts | 342° |
| 2026-04-16 22:01 | 50.04631 | 8.56072 | 360 ft | 4 kts | 330° |
| 2026-04-16 22:02 | 50.04660 | 8.56057 | 360 ft | 4 kts | 347° |
| 2026-04-16 22:02 | 50.04662 | 8.56056 | 359 ft | 0 kts | 347° |